Time;durP1;ratioP1;P1;durP2;ratioP2;P2;SDS_P1;SDS_P2;PMS_P1;PMS_P2;Temp;Humidity;BMP_temperature;BMP_pressure;BME280_temperature;BME280_humidity;BME280_pressure;Samples;Min_cycle;Max_cycle;Signal;HPM_P1;HPM_P2
2023/06/10 00:00:06;;;;;;;8.90;8.30;;;27.20;54.70;;;;;;5068173;28;21003;-66
2023/06/10 00:02:41;;;;;;;8.10;7.50;;;27.30;54.70;;;;;;5069689;28;20447;-66
2023/06/10 00:05:10;;;;;;;8.10;7.60;;;27.20;54.70;;;;;;5057330;28;20460;-66
2023/06/10 00:07:40;;;;;;;8.70;8.10;;;27.20;54.70;;;;;;5069726;28;20462;-66
2023/06/10 00:10:10;;;;;;;8.10;7.40;;;27.30;54.70;;;;;;5065245;28;20822;-66
2023/06/10 00:12:39;;;;;;;6.90;6.50;;;27.30;54.60;;;;;;5069699;28;20504;-66
2023/06/10 00:15:09;;;;;;;8.27;7.57;;;27.30;54.60;;;;;;5068723;28;20546;-66
2023/06/10 00:17:38;;;;;;;8.07;7.47;;;27.30;54.60;;;;;;5069482;28;20455;-66
2023/06/10 00:20:11;;;;;;;8.10;7.60;;;27.30;54.60;;;;;;5071443;28;20488;-66
2023/06/10 00:22:41;;;;;;;8.40;7.80;;;27.30;54.60;;;;;;5072164;28;20443;-67
2023/06/10 00:25:11;;;;;;;7.43;6.90;;;27.30;54.60;;;;;;5071098;28;20502;-66
2023/06/10 00:27:39;;;;;;;8.50;7.80;;;27.30;54.60;;;;;;5068390;28;20458;-66
2023/06/10 00:30:11;;;;;;;7.87;7.37;;;27.30;54.60;;;;;;5069176;28;20460;-67
2023/06/10 00:32:40;;;;;;;8.03;7.33;;;27.30;54.70;;;;;;5071220;28;20510;-66
2023/06/10 00:35:08;;;;;;;8.77;8.07;;;27.20;54.80;;;;;;5068016;28;20480;-66
2023/06/10 00:37:39;;;;;;;7.63;7.13;;;27.20;54.80;;;;;;5070782;28;20458;-66
2023/06/10 00:40:09;;;;;;;7.30;6.80;;;27.20;54.70;;;;;;5069548;28;20459;-67
2023/06/10 00:42:38;;;;;;;7.97;7.37;;;27.20;54.80;;;;;;5066997;28;20469;-66
2023/06/10 00:45:07;;;;;;;7.80;7.30;;;27.20;54.80;;;;;;5059209;28;21331;-66
2023/06/10 00:47:39;;;;;;;7.37;6.87;;;27.20;54.80;;;;;;5060176;28;20477;-67
2023/06/10 00:50:08;;;;;;;7.50;6.90;;;27.20;54.70;;;;;;5064473;28;20475;-66
2023/06/10 00:52:37;;;;;;;7.37;6.87;;;27.20;54.80;;;;;;5070177;28;21170;-66
2023/06/10 00:55:07;;;;;;;8.10;7.50;;;27.20;54.80;;;;;;5070899;28;20464;-66
2023/06/10 00:57:37;;;;;;;7.30;6.80;;;27.20;54.80;;;;;;5069182;28;20498;-66
2023/06/10 01:00:08;;;;;;;8.00;7.40;;;27.20;54.70;;;;;;5070479;28;20583;-66
2023/06/10 01:02:38;;;;;;;7.80;7.00;;;27.20;54.70;;;;;;5068461;28;20948;-66
2023/06/10 01:05:07;;;;;;;7.23;6.77;;;27.20;54.80;;;;;;5069898;28;20449;-67
2023/06/10 01:07:42;;;;;;;6.93;6.43;;;27.20;54.80;;;;;;5064833;28;20461;-67
2023/06/10 01:10:17;;;;;;;7.90;7.20;;;27.20;54.70;;;;;;5066548;28;20865;-67
2023/06/10 01:13:02;;;;;;;7.40;6.80;;;27.20;54.80;;;;;;5070686;28;20448;-67
2023/06/10 01:15:31;;;;;;;6.97;6.47;;;27.20;54.80;;;;;;5068257;28;21001;-67
2023/06/10 01:18:03;;;;;;;7.30;6.80;;;27.20;54.80;;;;;;5070726;28;20924;-66
2023/06/10 01:20:32;;;;;;;7.30;6.70;;;27.20;54.80;;;;;;5070001;28;20511;-66
2023/06/10 01:23:04;;;;;;;7.57;7.03;;;27.20;54.70;;;;;;5071051;28;20459;-66
2023/06/10 01:25:36;;;;;;;7.33;6.73;;;27.10;54.90;;;;;;5068775;28;20492;-66
2023/06/10 01:28:11;;;;;;;8.07;7.47;;;27.10;54.80;;;;;;5070871;28;20447;-66
2023/06/10 01:30:48;;;;;;;6.60;6.20;;;27.10;54.90;;;;;;5070704;28;20448;-66
2023/06/10 01:33:23;;;;;;;6.77;6.30;;;27.10;54.90;;;;;;5071238;28;20481;-66
2023/06/10 01:35:52;;;;;;;7.20;6.70;;;27.10;54.90;;;;;;5071205;28;20528;-66
2023/06/10 01:38:24;;;;;;;6.90;6.50;;;27.10;54.90;;;;;;5070373;28;20441;-66
2023/06/10 01:40:54;;;;;;;6.70;6.27;;;27.10;54.90;;;;;;5071429;28;20444;-67
2023/06/10 01:43:22;;;;;;;6.03;5.53;;;27.10;55.00;;;;;;5069460;28;20836;-66
2023/06/10 01:45:51;;;;;;;6.37;5.93;;;27.10;55.00;;;;;;5070571;28;20441;-66
2023/06/10 01:48:19;;;;;;;6.73;6.13;;;27.10;55.00;;;;;;5071080;28;20444;-66
2023/06/10 01:50:48;;;;;;;6.23;5.83;;;27.10;55.00;;;;;;5071700;28;20471;-66
2023/06/10 01:53:16;;;;;;;6.40;5.90;;;27.10;54.90;;;;;;5071139;28;20477;-66
2023/06/10 01:55:46;;;;;;;7.00;6.40;;;27.10;54.90;;;;;;5071221;28;20923;-66
2023/06/10 01:58:14;;;;;;;6.63;6.13;;;27.10;55.20;;;;;;5067784;28;20441;-66
2023/06/10 02:00:43;;;;;;;6.77;6.27;;;27.10;54.80;;;;;;5069066;28;20504;-66
2023/06/10 02:03:12;;;;;;;6.90;6.40;;;27.10;54.90;;;;;;5070628;28;20548;-66
2023/06/10 02:05:40;;;;;;;6.87;6.37;;;27.10;54.90;;;;;;5071169;28;20494;-66
2023/06/10 02:08:09;;;;;;;5.67;5.27;;;27.10;54.90;;;;;;5069538;28;20455;-66
2023/06/10 02:10:37;;;;;;;5.87;5.37;;;27.20;55.10;;;;;;5060412;28;20685;-66
2023/06/10 02:13:06;;;;;;;6.27;5.77;;;27.20;54.80;;;;;;5070109;28;20446;-66
2023/06/10 02:15:35;;;;;;;6.23;5.73;;;27.20;55.00;;;;;;5069065;28;20455;-66
2023/06/10 02:18:03;;;;;;;6.73;6.17;;;27.30;54.70;;;;;;5068197;28;20450;-67
2023/06/10 02:20:31;;;;;;;5.90;5.50;;;27.30;54.70;;;;;;5068649;28;20519;-66
2023/06/10 02:23:00;;;;;;;6.60;6.13;;;27.30;54.80;;;;;;5072677;28;20454;-66
2023/06/10 02:25:29;;;;;;;7.00;6.50;;;27.30;54.80;;;;;;5075499;28;20447;-66
2023/06/10 02:27:58;;;;;;;6.30;5.80;;;27.40;54.70;;;;;;5075153;28;20445;-67
2023/06/10 02:30:27;;;;;;;6.93;6.43;;;27.40;54.70;;;;;;5072865;28;20461;-67
2023/06/10 02:32:56;;;;;;;6.23;5.83;;;27.40;54.80;;;;;;5065159;28;20512;-67
2023/06/10 02:35:26;;;;;;;6.50;6.00;;;27.40;54.60;;;;;;5072669;28;20492;-67
2023/06/10 02:37:55;;;;;;;5.67;5.27;;;27.40;54.90;;;;;;5073468;28;20450;-67
2023/06/10 02:40:23;;;;;;;5.97;5.57;;;27.40;54.60;;;;;;5073686;28;20470;-67
2023/06/10 02:42:52;;;;;;;6.87;6.30;;;27.40;54.80;;;;;;5073407;28;20968;-67
2023/06/10 02:45:20;;;;;;;6.80;6.30;;;27.40;54.70;;;;;;5072494;28;20826;-67
2023/06/10 02:47:50;;;;;;;5.87;5.47;;;27.40;55.00;;;;;;5073926;28;20955;-67
2023/06/10 02:50:18;;;;;;;6.63;6.13;;;27.50;54.80;;;;;;5073187;28;20468;-67
2023/06/10 02:52:57;;;;;;;6.37;5.87;;;27.40;54.70;;;;;;5073519;28;20454;-67
2023/06/10 02:55:27;;;;;;;6.27;5.80;;;27.50;54.70;;;;;;5073233;28;20508;-67
2023/06/10 02:58:00;;;;;;;6.17;5.77;;;27.50;54.70;;;;;;5073321;28;20503;-67
2023/06/10 03:00:29;;;;;;;6.20;5.70;;;27.50;54.90;;;;;;5073005;28;20519;-67
2023/06/10 03:03:02;;;;;;;6.97;6.43;;;27.50;54.80;;;;;;5062494;28;20538;-67
2023/06/10 03:05:35;;;;;;;5.97;5.50;;;27.50;54.70;;;;;;5069349;28;20466;-66
2023/06/10 03:08:05;;;;;;;6.77;6.27;;;27.50;54.60;;;;;;5073346;28;20461;-66
2023/06/10 03:10:36;;;;;;;6.97;6.40;;;27.50;54.70;;;;;;5070594;28;20465;-66
2023/06/10 03:13:05;;;;;;;6.57;6.07;;;27.50;54.60;;;;;;5073130;28;20457;-66
2023/06/10 03:15:33;;;;;;;6.20;5.70;;;27.40;54.70;;;;;;5072334;28;20511;-67
2023/06/10 03:18:07;;;;;;;6.47;5.87;;;27.40;54.70;;;;;;5069504;28;20463;-66
2023/06/10 03:20:37;;;;;;;6.40;6.00;;;27.40;54.80;;;;;;5072545;28;20477;-66
2023/06/10 03:23:07;;;;;;;6.03;5.57;;;27.40;54.80;;;;;;5066585;28;20471;-66
2023/06/10 03:25:35;;;;;;;6.57;6.07;;;27.40;54.70;;;;;;5052678;28;20461;-66
2023/06/10 03:28:05;;;;;;;5.87;5.40;;;27.40;54.80;;;;;;5065637;28;20449;-66
2023/06/10 03:30:35;;;;;;;6.10;5.60;;;27.40;54.80;;;;;;5073483;28;20467;-66
2023/06/10 03:33:03;;;;;;;5.97;5.57;;;27.30;55.00;;;;;;5067079;28;20457;-66
2023/06/10 03:35:34;;;;;;;6.33;5.73;;;27.30;54.80;;;;;;5071158;28;20492;-66
2023/06/10 03:38:04;;;;;;;6.23;5.77;;;27.30;54.90;;;;;;5071521;28;20511;-66
2023/06/10 03:40:32;;;;;;;6.07;5.67;;;27.30;54.90;;;;;;5071877;28;20801;-66
2023/06/10 03:43:01;;;;;;;6.30;5.80;;;27.30;55.00;;;;;;5072392;28;20516;-66
2023/06/10 03:45:31;;;;;;;5.37;4.97;;;27.30;55.00;;;;;;5072203;28;20464;-66
2023/06/10 03:48:01;;;;;;;6.33;5.90;;;27.20;55.10;;;;;;5072216;28;20484;-66
2023/06/10 03:50:38;;;;;;;5.97;5.47;;;27.20;55.00;;;;;;5072170;28;20469;-66
2023/06/10 03:53:06;;;;;;;5.50;5.10;;;27.30;55.10;;;;;;5072644;28;20480;-66
2023/06/10 03:55:34;;;;;;;6.70;6.20;;;27.20;55.20;;;;;;5071455;28;20508;-66
2023/06/10 03:58:03;;;;;;;4.90;4.57;;;27.20;55.10;;;;;;5073096;28;20464;-67
2023/06/10 04:00:41;;;;;;;5.90;5.50;;;27.20;55.20;;;;;;5071893;28;20783;-67
2023/06/10 04:03:14;;;;;;;5.50;5.10;;;27.20;55.10;;;;;;5068469;28;20495;-66
2023/06/10 04:05:50;;;;;;;7.07;6.57;;;27.20;55.10;;;;;;5071058;28;20464;-66
2023/06/10 04:08:18;;;;;;;6.00;5.60;;;27.20;55.20;;;;;;5065196;28;20494;-66
2023/06/10 04:10:46;;;;;;;5.33;4.90;;;27.20;55.20;;;;;;5071952;28;20502;-66
2023/06/10 04:13:15;;;;;;;5.70;5.30;;;27.20;55.20;;;;;;5071542;28;20532;-66
2023/06/10 04:15:55;;;;;;;6.80;6.30;;;27.20;55.30;;;;;;5070078;28;20570;-66
2023/06/10 04:18:23;;;;;;;6.10;5.70;;;27.20;55.30;;;;;;5071949;28;20457;-66
2023/06/10 04:20:57;;;;;;;6.00;5.60;;;27.20;55.30;;;;;;5071941;28;20456;-66
2023/06/10 04:23:26;;;;;;;5.40;5.10;;;27.20;55.30;;;;;;5070617;28;20491;-66
2023/06/10 04:25:54;;;;;;;5.37;5.07;;;27.20;55.30;;;;;;5052539;28;20459;-65
2023/06/10 04:28:22;;;;;;;6.23;5.73;;;27.20;55.30;;;;;;5052386;28;20470;-66
2023/06/10 04:30:51;;;;;;;5.10;4.80;;;27.20;55.30;;;;;;5068559;28;20485;-67
2023/06/10 04:33:19;;;;;;;6.33;5.83;;;27.20;55.30;;;;;;5071111;28;20459;-66
2023/06/10 04:35:48;;;;;;;6.03;5.63;;;27.10;55.40;;;;;;5070784;28;20576;-66
2023/06/10 04:38:19;;;;;;;5.73;5.33;;;27.10;55.40;;;;;;5071502;28;20866;-66
2023/06/10 04:40:48;;;;;;;5.07;4.73;;;27.10;55.40;;;;;;5071459;28;20815;-66
2023/06/10 04:43:17;;;;;;;5.70;5.30;;;27.10;55.40;;;;;;5071680;28;20481;-66
2023/06/10 04:45:47;;;;;;;5.50;5.10;;;27.10;55.40;;;;;;5069817;28;20465;-66
2023/06/10 04:48:15;;;;;;;5.40;5.10;;;27.00;55.30;;;;;;5070963;28;20824;-66
2023/06/10 04:50:43;;;;;;;5.63;5.23;;;27.00;55.40;;;;;;5071584;28;20468;-66
2023/06/10 04:53:11;;;;;;;6.07;5.67;;;27.00;55.40;;;;;;5071752;28;20458;-66
2023/06/10 04:55:45;;;;;;;5.47;5.07;;;27.00;55.50;;;;;;5070846;28;20477;-66
2023/06/10 04:58:13;;;;;;;5.30;5.00;;;27.00;55.50;;;;;;5072289;28;20475;-66
2023/06/10 05:00:43;;;;;;;6.07;5.67;;;27.00;55.40;;;;;;5067640;28;20947;-66
2023/06/10 05:03:11;;;;;;;6.77;6.27;;;27.00;55.40;;;;;;5067425;28;20546;-66
2023/06/10 05:05:40;;;;;;;5.20;4.90;;;27.00;55.70;;;;;;5065603;28;20468;-66
2023/06/10 05:08:08;;;;;;;5.60;5.13;;;27.00;55.60;;;;;;5069033;28;20455;-66
2023/06/10 05:10:36;;;;;;;5.80;5.30;;;27.00;55.40;;;;;;5068913;28;20549;-66
2023/06/10 05:13:06;;;;;;;5.60;5.20;;;26.90;55.50;;;;;;5072179;28;20488;-66
2023/06/10 05:15:34;;;;;;;6.33;5.93;;;26.90;55.60;;;;;;5069714;28;20469;-67
2023/06/10 05:18:03;;;;;;;6.00;5.50;;;26.90;55.60;;;;;;5070696;28;20914;-66
2023/06/10 05:20:31;;;;;;;5.80;5.40;;;26.90;55.50;;;;;;5069856;28;20434;-67
2023/06/10 05:22:59;;;;;;;6.03;5.50;;;26.90;55.60;;;;;;5067412;28;20460;-66
2023/06/10 05:25:31;;;;;;;5.80;5.37;;;26.90;55.60;;;;;;5066439;28;20515;-67
2023/06/10 05:27:59;;;;;;;6.53;6.10;;;26.90;55.60;;;;;;5067840;28;20462;-66
2023/06/10 05:30:28;;;;;;;5.43;5.03;;;26.90;55.60;;;;;;5066873;28;20461;-66
2023/06/10 05:32:57;;;;;;;5.50;5.10;;;26.90;55.60;;;;;;5067893;28;20606;-66
2023/06/10 05:35:25;;;;;;;5.73;5.33;;;26.90;55.60;;;;;;5069548;28;21053;-66
2023/06/10 05:37:54;;;;;;;6.40;5.80;;;26.90;55.60;;;;;;5070826;28;20468;-66
2023/06/10 05:40:22;;;;;;;5.80;5.30;;;26.90;55.70;;;;;;5070750;28;20863;-66
2023/06/10 05:42:50;;;;;;;6.20;5.70;;;26.90;55.70;;;;;;5071370;28;20485;-66
2023/06/10 05:45:18;;;;;;;6.47;6.07;;;26.90;55.60;;;;;;5070862;28;20790;-66
2023/06/10 05:47:48;;;;;;;5.90;5.50;;;26.90;55.70;;;;;;5071845;28;20920;-66
2023/06/10 05:50:16;;;;;;;6.43;5.93;;;26.90;55.70;;;;;;5070873;28;20464;-66
2023/06/10 05:52:44;;;;;;;5.40;5.07;;;26.90;55.70;;;;;;5071738;28;20446;-66
2023/06/10 05:55:13;;;;;;;5.70;5.30;;;26.90;55.70;;;;;;5069472;28;20450;-66
2023/06/10 05:57:42;;;;;;;5.73;5.33;;;26.90;55.60;;;;;;5069762;28;20515;-66
2023/06/10 06:00:12;;;;;;;6.20;5.70;;;26.90;55.70;;;;;;5070946;28;20448;-66
2023/06/10 06:02:40;;;;;;;5.83;5.43;;;26.90;55.70;;;;;;5071835;28;20440;-66
2023/06/10 06:05:10;;;;;;;5.67;5.27;;;27.00;55.70;;;;;;5071415;28;20466;-66
2023/06/10 06:07:38;;;;;;;5.63;5.23;;;27.00;55.70;;;;;;5067298;28;20540;-66
2023/06/10 06:10:08;;;;;;;5.53;5.23;;;27.00;55.70;;;;;;5065783;28;20459;-66
2023/06/10 06:12:36;;;;;;;5.83;5.40;;;27.00;55.70;;;;;;5062422;28;20453;-66
2023/06/10 06:15:05;;;;;;;5.50;5.10;;;27.00;55.60;;;;;;5050087;28;20441;-66
2023/06/10 06:17:33;;;;;;;6.53;6.03;;;27.00;55.70;;;;;;5062936;28;20482;-66
2023/06/10 06:20:02;;;;;;;5.33;4.93;;;27.00;55.70;;;;;;5069035;28;20546;-66
2023/06/10 06:22:31;;;;;;;6.20;5.80;;;27.00;55.70;;;;;;5063776;28;20543;-66
2023/06/10 06:24:59;;;;;;;6.07;5.67;;;27.00;55.80;;;;;;5064648;28;20470;-66
2023/06/10 06:27:28;;;;;;;5.93;5.43;;;27.00;55.80;;;;;;5071343;28;20456;-66
2023/06/10 06:29:56;;;;;;;5.73;5.33;;;27.00;55.80;;;;;;5068250;28;20450;-66
2023/06/10 06:32:27;;;;;;;5.13;4.80;;;27.00;55.80;;;;;;5070529;28;20457;-66
2023/06/10 06:34:55;;;;;;;6.13;5.73;;;27.00;55.80;;;;;;5064182;28;20527;-66
2023/06/10 06:37:25;;;;;;;5.27;4.87;;;27.00;55.80;;;;;;5061666;28;20472;-66
2023/06/10 06:40:09;;;;;;;5.73;5.33;;;27.00;55.80;;;;;;5069582;28;20806;-66
2023/06/10 06:42:37;;;;;;;6.40;5.90;;;27.00;55.90;;;;;;5071211;28;20459;-66
2023/06/10 06:45:33;;;;;;;6.37;5.87;;;27.00;56.00;;;;;;5059038;28;20457;-67
2023/06/10 06:48:02;;;;;;;5.80;5.40;;;27.00;56.00;;;;;;5065800;28;20501;-66
2023/06/10 06:50:30;;;;;;;5.70;5.30;;;27.00;56.00;;;;;;5064881;28;20469;-66
2023/06/10 06:52:58;;;;;;;5.77;5.40;;;27.00;56.10;;;;;;5066468;28;20454;-66
2023/06/10 06:55:28;;;;;;;5.90;5.40;;;27.00;56.10;;;;;;5059807;28;20461;-67
2023/06/10 06:57:56;;;;;;;5.10;4.70;;;27.00;56.20;;;;;;5066415;28;21272;-67
2023/06/10 07:00:25;;;;;;;6.20;5.80;;;27.00;56.30;;;;;;5065634;28;20452;-66
2023/06/10 07:02:53;;;;;;;6.10;5.70;;;27.00;56.20;;;;;;5064601;28;20457;-66
2023/06/10 07:05:21;;;;;;;5.50;5.10;;;27.00;56.30;;;;;;5066447;28;20873;-66
2023/06/10 07:07:54;;;;;;;6.20;5.80;;;27.00;56.30;;;;;;5066084;28;20484;-66
2023/06/10 07:10:23;;;;;;;6.10;5.60;;;27.00;56.30;;;;;;5064773;28;20489;-66
2023/06/10 07:12:53;;;;;;;6.23;5.73;;;27.00;56.40;;;;;;5073797;28;20480;-66
2023/06/10 07:15:22;;;;;;;6.90;5.40;;;27.00;56.40;;;;;;5073666;28;20456;-66
2023/06/10 07:17:50;;;;;;;6.87;6.33;;;27.00;56.40;;;;;;5074492;28;20480;-66
2023/06/10 07:20:18;;;;;;;5.73;5.20;;;27.00;56.40;;;;;;5072172;28;20460;-67
2023/06/10 07:22:47;;;;;;;6.43;5.93;;;27.00;56.40;;;;;;5074501;28;20456;-66
2023/06/10 07:25:15;;;;;;;6.77;6.27;;;27.00;56.50;;;;;;5072787;28;20446;-66
2023/06/10 07:27:43;;;;;;;7.30;6.00;;;27.00;56.50;;;;;;5072926;28;20449;-66
2023/06/10 07:30:14;;;;;;;6.80;6.30;;;27.00;56.40;;;;;;5072437;28;20956;-66
2023/06/10 07:32:43;;;;;;;6.20;5.60;;;27.00;56.50;;;;;;5070674;28;20461;-67
2023/06/10 07:35:12;;;;;;;6.23;5.83;;;27.10;56.50;;;;;;5071467;28;20993;-66
2023/06/10 07:37:40;;;;;;;6.30;5.77;;;27.10;56.50;;;;;;5069339;28;20818;-67
2023/06/10 07:40:09;;;;;;;6.60;6.10;;;27.10;56.70;;;;;;5072180;28;20466;-67
2023/06/10 07:42:38;;;;;;;6.70;6.10;;;27.00;56.60;;;;;;5069872;28;20805;-66
2023/06/10 07:45:07;;;;;;;5.83;5.47;;;27.00;56.90;;;;;;5069667;28;20982;-66
2023/06/10 07:47:37;;;;;;;7.03;6.53;;;27.00;56.80;;;;;;5069026;28;20455;-66
2023/06/10 07:50:06;;;;;;;6.57;6.00;;;27.00;56.80;;;;;;5069293;28;20975;-66
2023/06/10 07:52:34;;;;;;;5.87;5.47;;;27.00;56.90;;;;;;5071634;28;20495;-66
2023/06/10 07:55:02;;;;;;;7.90;6.60;;;27.00;56.90;;;;;;5059606;28;20548;-66
2023/06/10 07:57:34;;;;;;;6.93;6.07;;;27.00;57.30;;;;;;5059966;28;20474;-67
2023/06/10 08:00:04;;;;;;;9.27;6.37;;;27.00;57.00;;;;;;5069118;28;20450;-67
2023/06/10 08:02:40;;;;;;;7.33;6.67;;;27.00;57.10;;;;;;5072377;28;20448;-65
2023/06/10 08:05:09;;;;;;;6.73;6.13;;;27.00;57.00;;;;;;5070936;28;21004;-65
2023/06/10 08:07:38;;;;;;;6.97;6.37;;;27.00;57.30;;;;;;5070306;28;20459;-65
2023/06/10 08:10:07;;;;;;;6.87;6.27;;;27.00;57.20;;;;;;5070831;28;20444;-65
2023/06/10 08:12:36;;;;;;;7.10;6.50;;;27.00;57.20;;;;;;5069648;28;20505;-65
2023/06/10 08:15:05;;;;;;;6.77;6.27;;;27.00;57.90;;;;;;5067443;28;20465;-65
2023/06/10 08:17:34;;;;;;;7.80;7.10;;;27.00;57.40;;;;;;5084967;28;20491;-65
2023/06/10 08:20:05;;;;;;;6.60;6.00;;;27.00;57.60;;;;;;5069874;28;20463;-65
2023/06/10 08:22:33;;;;;;;6.97;6.43;;;27.00;58.00;;;;;;5068134;28;20487;-66
2023/06/10 08:25:02;;;;;;;7.90;7.20;;;27.00;58.80;;;;;;5066650;28;20507;-65
2023/06/10 08:27:30;;;;;;;7.20;6.60;;;27.00;59.40;;;;;;5070408;28;20967;-65
2023/06/10 08:30:00;;;;;;;8.27;7.07;;;27.00;58.80;;;;;;5067771;28;20999;-65
2023/06/10 08:32:28;;;;;;;9.53;7.13;;;27.00;58.60;;;;;;5068868;28;20520;-66
2023/06/10 08:34:57;;;;;;;7.93;7.23;;;27.10;59.60;;;;;;5084979;28;20502;-66
2023/06/10 08:37:26;;;;;;;8.93;6.83;;;27.00;58.80;;;;;;5066420;28;20524;-64
2023/06/10 08:39:55;;;;;;;8.23;7.30;;;27.00;58.90;;;;;;5067238;28;20786;-64
2023/06/10 08:42:26;;;;;;;8.43;7.17;;;27.00;59.20;;;;;;5068607;28;20866;-64
2023/06/10 08:44:56;;;;;;;7.47;6.67;;;27.10;58.70;;;;;;5063171;28;20467;-64
2023/06/10 08:47:27;;;;;;;8.77;7.93;;;27.10;59.80;;;;;;5064488;28;20445;-64
2023/06/10 08:50:01;;;;;;;7.30;6.60;;;27.10;60.10;;;;;;5063788;28;20536;-64
2023/06/10 08:52:37;;;;;;;7.77;6.60;;;27.10;59.50;;;;;;5051874;28;20474;-65
2023/06/10 08:55:12;;;;;;;7.93;7.13;;;27.10;59.90;;;;;;5060179;28;20508;-65
2023/06/10 08:57:44;;;;;;;8.90;7.17;;;27.10;60.00;;;;;;5065600;28;20981;-65
2023/06/10 09:00:14;;;;;;;7.00;6.40;;;27.10;59.90;;;;;;5065362;28;20452;-65
2023/06/10 09:02:43;;;;;;;9.17;6.87;;;27.20;60.00;;;;;;5067942;28;20821;-65
2023/06/10 09:05:11;;;;;;;7.27;6.67;;;27.20;60.30;;;;;;5066241;28;21035;-65
2023/06/10 09:07:41;;;;;;;7.27;6.67;;;27.20;60.00;;;;;;5068893;28;20452;-64
2023/06/10 09:10:11;;;;;;;6.37;5.60;;;27.20;59.70;;;;;;5068626;28;20961;-65
2023/06/10 09:12:39;;;;;;;8.07;7.37;;;27.20;59.70;;;;;;5067991;28;20881;-65
2023/06/10 09:15:09;;;;;;;6.97;6.40;;;27.10;59.90;;;;;;5069191;28;20449;-65
2023/06/10 09:17:37;;;;;;;6.77;6.17;;;27.20;59.40;;;;;;5069295;28;20472;-65
2023/06/10 09:20:07;;;;;;;6.50;6.00;;;27.20;59.60;;;;;;5070259;28;20537;-65
2023/06/10 09:22:38;;;;;;;6.93;6.47;;;27.20;59.60;;;;;;5069954;28;20952;-65
2023/06/10 09:25:10;;;;;;;6.97;6.27;;;27.20;59.60;;;;;;5069091;28;20501;-64
2023/06/10 09:27:50;;;;;;;7.17;6.30;;;27.20;59.50;;;;;;5068759;28;21011;-65
2023/06/10 09:30:36;;;;;;;6.90;6.50;;;27.20;59.30;;;;;;5068181;28;20442;-65
2023/06/10 09:33:11;;;;;;;6.00;5.57;;;27.20;59.30;;;;;;5068831;28;20551;-65
2023/06/10 09:35:47;;;;;;;7.83;7.23;;;27.20;59.40;;;;;;5064805;28;20546;-66
2023/06/10 09:38:20;;;;;;;6.53;6.00;;;27.20;59.10;;;;;;5067977;28;20476;-65
2023/06/10 09:40:54;;;;;;;6.53;6.03;;;27.20;58.90;;;;;;5096209;28;20979;-65
2023/06/10 09:43:22;;;;;;;5.63;5.13;;;27.20;59.10;;;;;;5067555;28;21127;-65
2023/06/10 09:45:52;;;;;;;7.30;5.43;;;27.20;59.00;;;;;;5064465;28;20860;-65
2023/06/10 09:48:22;;;;;;;6.27;5.67;;;27.20;59.10;;;;;;5067002;28;20521;-65
2023/06/10 09:50:50;;;;;;;7.30;6.80;;;27.20;59.00;;;;;;5066504;28;21073;-65
2023/06/10 09:53:18;;;;;;;6.60;6.10;;;27.20;58.90;;;;;;5068884;28;20478;-65
2023/06/10 09:55:47;;;;;;;6.00;5.57;;;27.20;58.90;;;;;;5067351;28;20471;-65
2023/06/10 09:58:17;;;;;;;6.40;5.63;;;27.20;58.90;;;;;;5069450;28;20472;-65
2023/06/10 10:00:53;;;;;;;6.40;5.90;;;27.10;58.80;;;;;;5066949;28;20450;-65
2023/06/10 10:03:24;;;;;;;5.73;5.33;;;27.10;59.00;;;;;;5069575;28;20997;-66
2023/06/10 10:05:59;;;;;;;5.60;5.20;;;27.20;58.80;;;;;;5066827;28;20507;-66
2023/06/10 10:08:28;;;;;;;6.57;6.07;;;27.20;58.80;;;;;;5068603;28;20453;-66
2023/06/10 10:10:59;;;;;;;6.17;5.70;;;27.20;58.40;;;;;;5067966;28;20466;-67
2023/06/10 10:13:29;;;;;;;5.73;5.33;;;27.20;58.40;;;;;;5067632;28;20453;-66
2023/06/10 10:16:00;;;;;;;6.80;6.30;;;27.20;58.40;;;;;;5066501;28;20470;-66
2023/06/10 10:18:32;;;;;;;6.43;5.93;;;27.20;58.40;;;;;;5068665;28;20477;-66
2023/06/10 10:21:07;;;;;;;7.60;6.00;;;27.20;58.70;;;;;;5069750;28;20490;-66
2023/06/10 10:23:41;;;;;;;6.40;5.80;;;27.20;58.60;;;;;;5069213;28;20821;-66
2023/06/10 10:26:12;;;;;;;6.50;5.97;;;27.20;58.70;;;;;;5066175;28;20541;-66
2023/06/10 10:28:48;;;;;;;6.53;6.03;;;27.20;58.60;;;;;;5067773;28;20473;-66
2023/06/10 10:31:19;;;;;;;5.87;5.40;;;27.20;58.70;;;;;;5068918;28;20456;-66
2023/06/10 10:33:56;;;;;;;6.80;6.30;;;27.20;58.90;;;;;;5068206;28;20460;-66
2023/06/10 10:36:25;;;;;;;6.33;5.90;;;27.20;58.60;;;;;;5065143;28;20477;-66
2023/06/10 10:38:54;;;;;;;6.70;6.20;;;27.20;58.70;;;;;;5066833;28;20580;-67
2023/06/10 10:41:23;;;;;;;6.03;5.63;;;27.20;58.80;;;;;;5067786;28;20460;-66
2023/06/10 10:43:54;;;;;;;5.67;5.27;;;27.20;58.70;;;;;;5072204;28;20465;-67
2023/06/10 10:46:22;;;;;;;5.70;5.20;;;27.20;58.60;;;;;;5070952;28;20458;-66
2023/06/10 10:48:54;;;;;;;5.87;5.47;;;27.20;58.60;;;;;;5069729;28;21022;-66
2023/06/10 10:51:24;;;;;;;5.97;5.57;;;27.20;58.50;;;;;;5071155;28;20456;-67
2023/06/10 10:54:11;;;;;;;6.30;5.80;;;27.20;58.60;;;;;;5069351;28;20457;-66
2023/06/10 10:56:39;;;;;;;5.90;5.40;;;27.20;58.50;;;;;;5069289;28;20455;-66
2023/06/10 10:59:09;;;;;;;6.43;5.83;;;27.20;58.50;;;;;;5069768;28;20490;-66
2023/06/10 11:01:46;;;;;;;5.87;5.47;;;27.20;58.40;;;;;;5070492;28;20956;-66
2023/06/10 11:04:18;;;;;;;5.63;5.23;;;27.20;58.60;;;;;;5067707;28;20454;-67
2023/06/10 11:06:54;;;;;;;5.63;5.23;;;27.20;58.40;;;;;;5071557;28;20994;-67
2023/06/10 11:09:29;;;;;;;5.70;5.30;;;27.20;58.50;;;;;;5067860;28;20531;-67
2023/06/10 11:12:00;;;;;;;5.57;5.17;;;27.20;58.50;;;;;;5070912;28;20964;-66
2023/06/10 11:14:31;;;;;;;6.50;6.00;;;27.20;58.30;;;;;;5069799;28;20544;-66
2023/06/10 11:17:00;;;;;;;5.37;5.07;;;27.20;58.40;;;;;;5072518;28;20460;-66
2023/06/10 11:19:36;;;;;;;7.63;7.03;;;27.20;58.40;;;;;;5071174;28;20545;-66
2023/06/10 11:22:06;;;;;;;5.80;5.43;;;27.20;58.40;;;;;;5072359;28;20501;-66
2023/06/10 11:24:34;;;;;;;6.10;5.70;;;27.20;58.30;;;;;;5071987;28;20506;-66
2023/06/10 11:27:19;;;;;;;5.93;5.43;;;27.20;58.30;;;;;;5071671;28;20472;-66
2023/06/10 11:30:20;;;;;;;7.13;5.40;;;27.20;58.20;;;;;;5069848;28;21202;-66
2023/06/10 11:32:53;;;;;;;6.00;5.50;;;27.20;57.90;;;;;;5072163;28;20450;-66
2023/06/10 11:35:25;;;;;;;6.60;6.10;;;27.20;58.10;;;;;;5072301;28;20524;-66
2023/06/10 11:37:53;;;;;;;6.10;5.70;;;27.20;58.10;;;;;;5070772;28;20556;-67
2023/06/10 11:40:21;;;;;;;6.60;6.03;;;27.20;58.20;;;;;;5070739;28;20595;-66
2023/06/10 11:42:49;;;;;;;6.60;6.20;;;27.10;58.30;;;;;;5072687;28;20463;-66
2023/06/10 11:45:19;;;;;;;6.20;5.70;;;27.10;58.30;;;;;;5060665;28;20461;-67
2023/06/10 11:47:57;;;;;;;7.37;6.77;;;27.20;58.30;;;;;;5068386;28;20563;-66
2023/06/10 11:50:31;;;;;;;5.97;5.57;;;27.20;58.20;;;;;;5070961;28;20464;-66
2023/06/10 11:52:59;;;;;;;6.27;5.60;;;27.20;58.20;;;;;;5071454;28;20457;-66
2023/06/10 11:55:42;;;;;;;6.63;6.13;;;27.20;58.20;;;;;;5069936;28;20979;-66
2023/06/10 11:58:14;;;;;;;5.70;5.30;;;27.20;58.00;;;;;;5070106;28;20948;-66
2023/06/10 12:00:48;;;;;;;6.23;5.73;;;27.30;58.00;;;;;;5068593;28;20871;-66
2023/06/10 12:03:17;;;;;;;5.47;4.97;;;27.30;57.90;;;;;;5069555;28;20460;-66
2023/06/10 12:05:59;;;;;;;6.20;5.70;;;27.40;57.80;;;;;;5068196;28;20515;-66
2023/06/10 12:08:27;;;;;;;6.47;5.97;;;27.40;57.50;;;;;;5067642;28;21053;-66
2023/06/10 12:10:56;;;;;;;6.20;5.70;;;27.40;57.60;;;;;;5069283;28;20473;-66
2023/06/10 12:13:27;;;;;;;6.70;6.20;;;27.50;57.60;;;;;;5067509;28;20453;-67
2023/06/10 12:16:07;;;;;;;5.10;4.80;;;27.40;57.60;;;;;;5071722;28;20450;-67
2023/06/10 12:18:35;;;;;;;5.33;5.03;;;27.40;57.30;;;;;;5071312;28;20441;-66
2023/06/10 12:21:04;;;;;;;7.40;6.73;;;27.40;57.50;;;;;;5066549;28;20940;-67
2023/06/10 12:23:32;;;;;;;5.80;5.40;;;27.40;57.70;;;;;;5075810;28;20449;-66
2023/06/10 12:26:01;;;;;;;5.30;4.90;;;27.40;57.60;;;;;;5067506;28;20952;-66
2023/06/10 12:28:30;;;;;;;5.90;5.50;;;27.40;57.60;;;;;;5077269;28;20458;-67
2023/06/10 12:31:09;;;;;;;6.30;5.90;;;27.40;57.60;;;;;;5069188;28;20506;-66
2023/06/10 12:33:38;;;;;;;6.07;5.67;;;27.40;57.50;;;;;;5067833;28;20457;-66
2023/06/10 12:36:16;;;;;;;6.00;5.60;;;27.50;57.40;;;;;;5072371;28;20538;-67
2023/06/10 12:38:45;;;;;;;5.67;5.27;;;27.50;57.50;;;;;;5066774;28;20463;-66
2023/06/10 12:41:13;;;;;;;5.80;5.40;;;27.50;57.50;;;;;;5065197;28;20487;-66
2023/06/10 12:43:42;;;;;;;6.20;5.80;;;27.40;57.60;;;;;;5070797;28;20459;-67
2023/06/10 12:46:12;;;;;;;6.07;5.67;;;27.40;57.60;;;;;;5065260;28;20508;-66
2023/06/10 12:48:51;;;;;;;5.87;5.47;;;27.40;57.60;;;;;;5070446;28;20487;-66
2023/06/10 12:51:19;;;;;;;6.60;6.17;;;27.40;57.60;;;;;;5067206;28;20454;-66
2023/06/10 12:53:48;;;;;;;5.37;5.07;;;27.40;57.60;;;;;;5068646;28;20556;-66
2023/06/10 12:56:16;;;;;;;5.93;5.30;;;27.40;57.70;;;;;;5074858;28;20466;-66
2023/06/10 12:58:44;;;;;;;6.37;6.00;;;27.50;57.50;;;;;;5069316;28;20508;-66
2023/06/10 13:01:15;;;;;;;6.70;6.30;;;27.40;57.70;;;;;;5064248;28;20468;-67
2023/06/10 13:03:43;;;;;;;5.60;5.20;;;27.40;57.60;;;;;;5069558;28;20459;-66